Time;durP1;ratioP1;P1;durP2;ratioP2;P2;SDS_P1;SDS_P2;PMS_P1;PMS_P2;Temp;Humidity;BMP_temperature;BMP_pressure;BME280_temperature;BME280_humidity;BME280_pressure;Samples;Min_cycle;Max_cycle;Signal;HPM_P1;HPM_P2
2023/12/30 00:02:21;;;;;;;130.15;57.05;;;18.60;66.00;;;;;;4888780;28;85127;-40
2023/12/30 00:04:47;;;;;;;129.35;56.80;;;18.50;65.90;;;;;;4890139;28;89592;-41
2023/12/30 00:07:13;;;;;;;130.98;57.75;;;18.50;65.90;;;;;;4886735;28;85173;-42
2023/12/30 00:09:40;;;;;;;129.18;56.85;;;18.50;66.00;;;;;;4889419;28;85622;-41
2023/12/30 00:12:05;;;;;;;130.77;57.13;;;18.50;65.90;;;;;;4893991;28;85771;-41
2023/12/30 00:14:31;;;;;;;130.68;57.20;;;18.40;66.10;;;;;;4889091;28;85028;-41
2023/12/30 00:16:57;;;;;;;127.93;56.35;;;18.50;66.10;;;;;;4890791;28;85314;-41
2023/12/30 00:19:22;;;;;;;130.18;57.30;;;18.40;66.10;;;;;;4887621;28;85387;-40
2023/12/30 00:21:48;;;;;;;131.10;57.15;;;18.40;66.00;;;;;;4890087;28;86862;-42
2023/12/30 00:24:13;;;;;;;134.07;57.35;;;18.40;66.30;;;;;;4896990;28;84975;-40
2023/12/30 00:26:39;;;;;;;130.70;57.22;;;18.30;66.30;;;;;;4898610;28;85130;-44
2023/12/30 00:29:05;;;;;;;129.10;56.70;;;18.30;66.20;;;;;;4901673;28;84699;-43
2023/12/30 00:31:31;;;;;;;128.98;56.88;;;18.30;66.20;;;;;;4901477;28;89171;-41
2023/12/30 00:33:58;;;;;;;132.02;57.05;;;18.30;66.40;;;;;;4897710;28;89987;-42
2023/12/30 00:36:24;;;;;;;128.05;56.42;;;18.20;66.30;;;;;;4902444;28;84821;-41
2023/12/30 00:38:53;;;;;;;132.00;56.78;;;18.20;66.40;;;;;;4899092;28;86156;-41
2023/12/30 00:41:18;;;;;;;129.13;56.80;;;18.20;66.60;;;;;;4903965;28;84517;-40
2023/12/30 00:43:44;;;;;;;130.65;57.05;;;18.20;66.60;;;;;;4903531;28;85765;-41
2023/12/30 00:46:10;;;;;;;131.05;57.03;;;18.20;66.70;;;;;;4903791;28;85299;-46
2023/12/30 00:48:36;;;;;;;130.43;56.97;;;18.10;66.70;;;;;;4902282;28;85503;-41
2023/12/30 00:51:02;;;;;;;129.43;56.75;;;18.10;66.70;;;;;;4904422;28;85826;-45
2023/12/30 00:53:28;;;;;;;131.63;56.88;;;18.10;66.80;;;;;;4899025;28;85004;-44
2023/12/30 00:55:55;;;;;;;129.18;56.80;;;18.10;66.70;;;;;;4900740;28;84993;-46
2023/12/30 00:58:21;;;;;;;129.23;56.97;;;18.10;66.70;;;;;;4903092;28;84979;-41
2023/12/30 01:00:46;;;;;;;128.80;56.88;;;18.00;66.80;;;;;;4899809;28;86178;-40
2023/12/30 01:03:12;;;;;;;129.38;57.13;;;18.00;67.50;;;;;;4900947;28;85037;-42
2023/12/30 01:05:38;;;;;;;127.50;56.55;;;18.00;66.90;;;;;;4901643;28;89841;-43
2023/12/30 01:08:04;;;;;;;129.00;56.92;;;18.00;67.10;;;;;;4901855;28;85271;-41
2023/12/30 01:10:29;;;;;;;129.45;57.20;;;17.90;67.00;;;;;;4896716;28;85517;-44
2023/12/30 01:12:55;;;;;;;128.32;56.38;;;17.90;67.30;;;;;;4900360;28;85646;-46
2023/12/30 01:15:21;;;;;;;128.93;56.83;;;17.90;67.00;;;;;;4901221;28;85041;-47
2023/12/30 01:17:46;;;;;;;128.30;56.72;;;17.90;67.10;;;;;;4901791;28;89284;-41
2023/12/30 01:20:12;;;;;;;129.07;56.65;;;17.90;67.10;;;;;;4904797;28;85051;-44
2023/12/30 01:22:38;;;;;;;129.10;56.92;;;17.80;67.20;;;;;;4903387;28;87901;-45
2023/12/30 01:25:05;;;;;;;129.55;56.90;;;17.80;67.10;;;;;;4898762;28;85427;-42
2023/12/30 01:27:30;;;;;;;129.43;56.40;;;17.80;67.10;;;;;;4904316;28;84898;-48
2023/12/30 01:29:56;;;;;;;132.55;57.15;;;17.80;67.20;;;;;;4903248;28;85299;-46
2023/12/30 01:32:22;;;;;;;130.45;56.72;;;17.80;67.20;;;;;;4904445;28;84661;-41
2023/12/30 01:34:47;;;;;;;130.05;56.80;;;17.80;67.10;;;;;;4902924;28;84822;-41
2023/12/30 01:37:13;;;;;;;130.68;57.63;;;17.80;67.10;;;;;;4900863;28;84449;-42
2023/12/30 01:39:38;;;;;;;130.68;56.75;;;17.80;67.10;;;;;;4901763;28;85611;-41
2023/12/30 01:42:04;;;;;;;130.55;56.97;;;17.70;67.10;;;;;;4900815;28;85322;-43
2023/12/30 01:44:30;;;;;;;128.93;56.42;;;17.70;67.20;;;;;;4900579;28;85422;-40
2023/12/30 01:46:56;;;;;;;129.88;56.67;;;17.70;67.20;;;;;;4901664;28;89966;-41
2023/12/30 01:49:22;;;;;;;128.30;56.72;;;17.70;67.20;;;;;;4899142;28;85433;-42
2023/12/30 01:51:50;;;;;;;128.23;56.55;;;17.70;67.20;;;;;;4901973;28;85313;-41
2023/12/30 01:54:17;;;;;;;129.98;56.58;;;17.60;67.30;;;;;;4900244;28;85445;-41
2023/12/30 01:56:44;;;;;;;129.93;56.75;;;17.60;67.30;;;;;;4906631;28;84901;-44
2023/12/30 01:59:13;;;;;;;129.27;56.65;;;17.60;67.10;;;;;;4903217;28;85307;-42
2023/12/30 02:01:40;;;;;;;130.23;56.90;;;17.60;67.20;;;;;;4899839;28;85587;-41
2023/12/30 02:04:06;;;;;;;129.27;56.55;;;17.60;67.20;;;;;;4900954;28;86348;-40
2023/12/30 02:06:31;;;;;;;127.75;56.40;;;17.60;67.10;;;;;;4902525;28;84661;-43
2023/12/30 02:08:57;;;;;;;129.07;56.88;;;17.60;67.10;;;;;;4905013;28;85727;-42
2023/12/30 02:11:23;;;;;;;129.57;56.60;;;17.60;67.00;;;;;;4901286;28;85122;-45
2023/12/30 02:13:49;;;;;;;128.75;56.47;;;17.60;67.20;;;;;;4902275;28;84851;-41
2023/12/30 02:16:15;;;;;;;129.90;56.33;;;17.60;67.10;;;;;;4905076;28;86183;-43
2023/12/30 02:18:41;;;;;;;128.60;56.30;;;17.50;67.10;;;;;;4901680;28;84833;-42
2023/12/30 02:21:07;;;;;;;127.78;56.15;;;17.50;67.10;;;;;;4903887;28;85112;-40
2023/12/30 02:23:32;;;;;;;130.48;56.92;;;17.50;67.10;;;;;;4904346;28;84986;-41
2023/12/30 02:25:58;;;;;;;127.85;56.63;;;17.40;66.90;;;;;;4896688;28;84761;-41
2023/12/30 02:28:23;;;;;;;127.03;56.38;;;17.40;67.10;;;;;;4901248;28;85682;-42
2023/12/30 02:30:49;;;;;;;128.25;56.65;;;17.40;67.10;;;;;;4899615;28;86504;-41
2023/12/30 02:33:15;;;;;;;129.68;56.60;;;17.50;67.20;;;;;;4899957;28;85688;-42
2023/12/30 02:35:43;;;;;;;127.63;55.88;;;17.40;67.20;;;;;;4898591;28;86910;-41
2023/12/30 02:38:09;;;;;;;128.18;56.83;;;17.40;67.20;;;;;;4896435;28;86905;-41
2023/12/30 02:40:35;;;;;;;127.53;55.85;;;17.40;67.20;;;;;;4901725;28;84863;-41
2023/12/30 02:43:01;;;;;;;127.32;56.13;;;17.40;67.20;;;;;;4901004;28;84911;-42
2023/12/30 02:45:26;;;;;;;127.22;56.38;;;17.40;67.10;;;;;;4902384;28;85770;-41
2023/12/30 02:47:52;;;;;;;129.75;56.28;;;17.40;67.20;;;;;;4903698;28;85522;-41
2023/12/30 02:50:18;;;;;;;129.25;56.35;;;17.30;67.90;;;;;;4900784;28;84702;-41
2023/12/30 02:52:44;;;;;;;127.65;56.55;;;17.40;67.20;;;;;;4901513;28;84958;-42
2023/12/30 02:55:10;;;;;;;129.85;56.97;;;17.40;67.20;;;;;;4901126;28;84933;-41
2023/12/30 02:57:35;;;;;;;127.70;56.40;;;17.30;67.20;;;;;;4898722;28;85004;-41
2023/12/30 03:00:01;;;;;;;127.38;56.33;;;17.30;67.10;;;;;;4900542;28;86169;-40
2023/12/30 03:02:27;;;;;;;129.60;56.45;;;17.30;67.10;;;;;;4899091;28;84628;-47
2023/12/30 03:04:52;;;;;;;126.50;55.83;;;17.30;67.30;;;;;;4898949;28;85096;-43
2023/12/30 03:07:18;;;;;;;127.60;56.67;;;17.30;67.20;;;;;;4900549;28;85704;-45
2023/12/30 03:09:44;;;;;;;126.03;56.17;;;17.30;67.10;;;;;;4899381;28;84808;-43
2023/12/30 03:12:10;;;;;;;130.07;56.67;;;17.30;67.20;;;;;;4903266;28;84433;-43
2023/12/30 03:14:35;;;;;;;128.30;56.42;;;17.30;67.30;;;;;;4905302;28;84795;-44
2023/12/30 03:17:01;;;;;;;129.50;56.83;;;17.30;67.10;;;;;;4902013;28;85856;-42
2023/12/30 03:19:27;;;;;;;127.25;56.03;;;17.20;67.10;;;;;;4906111;28;85935;-41
2023/12/30 03:21:54;;;;;;;128.00;56.60;;;17.20;67.20;;;;;;4902131;28;84994;-41
2023/12/30 03:24:20;;;;;;;128.93;56.28;;;17.20;67.20;;;;;;4903190;28;87399;-44
2023/12/30 03:26:45;;;;;;;128.32;56.30;;;17.20;67.20;;;;;;4904650;28;85202;-43
2023/12/30 03:29:11;;;;;;;130.40;56.42;;;17.20;67.20;;;;;;4901877;28;85561;-40
2023/12/30 03:31:37;;;;;;;127.40;56.30;;;17.20;67.20;;;;;;4905062;28;84713;-42
2023/12/30 03:34:03;;;;;;;127.30;56.33;;;17.20;67.40;;;;;;4905213;28;85772;-47
2023/12/30 03:36:28;;;;;;;127.47;55.72;;;17.10;67.30;;;;;;4903810;28;85006;-43
2023/12/30 03:38:54;;;;;;;127.15;56.53;;;17.20;67.40;;;;;;4897471;28;86321;-43
2023/12/30 03:41:20;;;;;;;126.80;56.17;;;17.10;67.30;;;;;;4902371;28;84860;-48
2023/12/30 03:43:47;;;;;;;127.22;56.30;;;17.10;67.50;;;;;;4901586;28;85901;-42
2023/12/30 03:46:13;;;;;;;128.25;56.67;;;17.10;67.50;;;;;;4905753;28;86035;-43
2023/12/30 03:48:39;;;;;;;128.18;56.53;;;17.10;67.50;;;;;;4904834;28;86048;-41
2023/12/30 03:51:08;;;;;;;128.05;56.38;;;17.10;67.60;;;;;;4901991;28;86374;-42
2023/12/30 03:53:33;;;;;;;127.38;55.67;;;17.10;67.70;;;;;;4903775;28;86940;-42
2023/12/30 03:56:00;;;;;;;126.93;56.05;;;17.00;67.60;;;;;;4903097;28;84761;-43
2023/12/30 03:58:25;;;;;;;128.05;56.00;;;17.10;67.60;;;;;;4898549;28;85199;-41
2023/12/30 04:00:51;;;;;;;128.55;56.10;;;17.10;67.70;;;;;;4904580;28;84800;-44
2023/12/30 04:03:17;;;;;;;127.07;56.47;;;17.00;67.60;;;;;;4904563;28;84931;-42
2023/12/30 04:05:43;;;;;;;127.35;56.13;;;17.00;67.60;;;;;;4902976;28;85554;-41
2023/12/30 04:08:08;;;;;;;126.88;56.05;;;17.00;67.70;;;;;;4900640;28;85107;-42
2023/12/30 04:10:34;;;;;;;127.65;56.35;;;17.00;68.50;;;;;;4903938;28;85428;-40
2023/12/30 04:13:00;;;;;;;128.43;56.30;;;17.00;67.80;;;;;;4910570;28;85716;-40
2023/12/30 04:15:25;;;;;;;127.03;56.40;;;17.00;67.80;;;;;;4902397;28;84866;-42
2023/12/30 04:17:51;;;;;;;126.93;56.05;;;17.00;67.80;;;;;;4907260;28;84878;-41
2023/12/30 04:20:17;;;;;;;125.57;55.83;;;16.90;67.80;;;;;;4906055;28;84520;-41
2023/12/30 04:22:43;;;;;;;127.72;56.13;;;16.90;67.80;;;;;;4903887;28;85578;-43
2023/12/30 04:25:08;;;;;;;125.60;55.78;;;16.90;67.70;;;;;;4905028;28;85075;-41
2023/12/30 04:27:35;;;;;;;127.68;55.85;;;16.90;67.90;;;;;;4903334;28;85229;-41
2023/12/30 04:30:01;;;;;;;126.55;56.13;;;16.90;67.90;;;;;;4903602;28;85612;-44
2023/12/30 04:32:27;;;;;;;126.72;55.90;;;16.90;68.00;;;;;;4903920;28;85532;-41
2023/12/30 04:34:53;;;;;;;126.22;56.42;;;16.80;67.90;;;;;;4899761;28;85178;-41
2023/12/30 04:37:21;;;;;;;125.85;56.08;;;16.80;68.10;;;;;;4899723;28;86101;-44
2023/12/30 04:39:47;;;;;;;127.32;55.83;;;16.80;68.70;;;;;;4904337;28;85035;-41
2023/12/30 04:42:14;;;;;;;125.57;55.92;;;16.80;68.10;;;;;;4897934;28;85347;-40
2023/12/30 04:44:40;;;;;;;126.90;56.30;;;16.80;68.10;;;;;;4903035;28;85456;-43
2023/12/30 04:47:06;;;;;;;126.85;56.05;;;16.80;68.10;;;;;;4903186;28;84605;-40
2023/12/30 04:49:32;;;;;;;126.72;56.05;;;16.80;68.20;;;;;;4905911;28;85978;-40
2023/12/30 04:51:58;;;;;;;126.57;56.10;;;16.70;68.20;;;;;;4909907;28;88529;-41
2023/12/30 04:54:25;;;;;;;125.93;55.90;;;16.70;68.20;;;;;;4907878;28;85148;-42
2023/12/30 04:56:51;;;;;;;126.43;56.25;;;16.70;68.20;;;;;;4902599;28;84603;-42
2023/12/30 04:59:17;;;;;;;125.55;56.00;;;16.70;68.20;;;;;;4903582;28;84574;-41
2023/12/30 05:01:43;;;;;;;128.85;56.22;;;16.70;69.00;;;;;;4903005;28;85156;-41
2023/12/30 05:04:09;;;;;;;125.63;56.58;;;16.70;68.50;;;;;;4901124;28;86781;-41
2023/12/30 05:06:34;;;;;;;125.43;55.83;;;16.70;68.40;;;;;;4902333;28;85233;-41
2023/12/30 05:09:01;;;;;;;127.97;56.25;;;16.70;68.70;;;;;;4903609;28;85090;-41
2023/12/30 05:11:26;;;;;;;126.20;55.92;;;16.70;68.50;;;;;;4903678;28;84953;-41
2023/12/30 05:13:52;;;;;;;126.18;55.92;;;16.70;68.50;;;;;;4903233;28;84569;-42
2023/12/30 05:16:18;;;;;;;126.82;55.95;;;16.70;68.60;;;;;;4906139;28;85019;-41
2023/12/30 05:18:43;;;;;;;128.93;56.25;;;16.60;68.60;;;;;;4902224;28;84690;-44
2023/12/30 05:21:14;;;;;;;128.70;56.55;;;16.60;68.60;;;;;;4902693;28;85157;-40
2023/12/30 05:23:40;;;;;;;126.13;55.83;;;16.60;68.70;;;;;;4903293;28;85157;-48
2023/12/30 05:26:06;;;;;;;125.47;56.08;;;16.60;68.70;;;;;;4903288;28;85313;-46
2023/12/30 05:28:31;;;;;;;126.03;56.20;;;16.60;68.70;;;;;;4904637;28;85109;-45
2023/12/30 05:30:57;;;;;;;125.88;56.05;;;16.60;68.80;;;;;;4903374;28;89268;-44
2023/12/30 05:33:23;;;;;;;126.20;56.08;;;16.60;68.80;;;;;;4904152;28;85047;-42
2023/12/30 05:35:49;;;;;;;128.35;56.30;;;16.50;68.70;;;;;;4910275;28;85093;-44
2023/12/30 05:38:15;;;;;;;125.75;55.80;;;16.50;68.80;;;;;;4899196;28;85082;-44
2023/12/30 05:40:41;;;;;;;129.18;56.08;;;16.50;69.00;;;;;;4900064;28;85877;-44
2023/12/30 05:43:06;;;;;;;126.03;56.28;;;16.50;69.00;;;;;;4903001;28;85138;-41
2023/12/30 05:45:32;;;;;;;125.32;55.83;;;16.50;69.00;;;;;;4899623;28;85200;-42
2023/12/30 05:47:58;;;;;;;125.63;56.03;;;16.50;68.90;;;;;;4906038;28;84810;-44
2023/12/30 05:50:23;;;;;;;126.35;55.92;;;16.50;68.90;;;;;;4900722;28;85988;-42
2023/12/30 05:52:49;;;;;;;126.22;56.13;;;16.50;69.00;;;;;;4904148;28;85127;-41
2023/12/30 05:55:15;;;;;;;126.53;55.83;;;16.50;69.10;;;;;;4903014;28;85153;-43
2023/12/30 05:57:40;;;;;;;126.25;55.72;;;16.50;69.10;;;;;;4904166;28;85048;-41
2023/12/30 06:00:08;;;;;;;126.03;55.97;;;16.50;69.20;;;;;;4904508;28;84877;-41
2023/12/30 06:02:33;;;;;;;126.63;56.45;;;16.50;69.20;;;;;;4907117;28;89757;-43
2023/12/30 06:04:59;;;;;;;126.45;56.13;;;16.50;69.20;;;;;;4900816;28;84931;-41
2023/12/30 06:07:25;;;;;;;125.35;56.03;;;16.40;69.20;;;;;;4902035;28;86160;-40
2023/12/30 06:09:50;;;;;;;124.80;55.75;;;16.40;69.10;;;;;;4901949;28;85844;-41
2023/12/30 06:12:16;;;;;;;126.55;55.72;;;16.40;69.20;;;;;;4901782;28;84858;-40
2023/12/30 06:14:42;;;;;;;125.82;56.13;;;16.40;69.20;;;;;;4902480;28;86101;-48
2023/12/30 06:17:07;;;;;;;124.32;55.50;;;16.40;69.20;;;;;;4903718;28;85794;-41
2023/12/30 06:19:34;;;;;;;128.25;56.05;;;16.40;69.20;;;;;;4903421;28;85011;-40
2023/12/30 06:22:00;;;;;;;123.97;55.45;;;16.40;69.20;;;;;;4903037;28;85127;-41
2023/12/30 06:24:26;;;;;;;125.07;55.92;;;16.40;69.30;;;;;;4902101;28;85024;-40
2023/12/30 06:26:52;;;;;;;124.82;55.33;;;16.40;69.40;;;;;;4901678;28;85041;-41
2023/12/30 06:29:19;;;;;;;125.07;55.63;;;16.30;69.30;;;;;;4903754;28;85711;-40
2023/12/30 06:31:45;;;;;;;125.97;55.83;;;16.30;69.40;;;;;;4903147;28;86270;-41
2023/12/30 06:34:10;;;;;;;125.05;55.88;;;16.30;69.30;;;;;;4904624;28;89104;-41
2023/12/30 06:36:37;;;;;;;126.32;55.85;;;16.30;69.40;;;;;;4908415;28;85880;-40
2023/12/30 06:39:02;;;;;;;126.28;55.83;;;16.30;69.50;;;;;;4898300;28;91893;-41
2023/12/30 06:41:47;;;;;;;125.55;56.00;;;16.30;69.60;;;;;;4900226;28;85253;-41
2023/12/30 06:44:12;;;;;;;125.45;55.83;;;16.30;69.60;;;;;;4900636;28;85546;-40
2023/12/30 06:46:38;;;;;;;127.00;56.08;;;16.30;69.60;;;;;;4903349;28;85789;-43
2023/12/30 06:49:04;;;;;;;125.25;55.92;;;16.30;69.70;;;;;;4901350;28;85331;-40
2023/12/30 06:51:29;;;;;;;125.60;55.80;;;16.30;69.70;;;;;;4899977;28;89388;-40
2023/12/30 06:53:55;;;;;;;126.22;55.70;;;16.30;69.70;;;;;;4901346;28;85136;-41
2023/12/30 06:56:20;;;;;;;126.15;55.65;;;16.30;70.40;;;;;;4900709;28;85927;-43
2023/12/30 06:58:46;;;;;;;126.38;55.55;;;16.20;69.70;;;;;;4903748;28;84793;-45
2023/12/30 07:01:13;;;;;;;125.53;56.00;;;16.20;69.70;;;;;;4899402;28;84991;-41
2023/12/30 07:03:39;;;;;;;127.85;56.03;;;16.20;69.70;;;;;;4901811;28;85348;-41
2023/12/30 07:06:05;;;;;;;125.43;56.10;;;16.20;69.70;;;;;;4905017;28;84679;-41
2023/12/30 07:08:30;;;;;;;126.07;56.05;;;16.20;69.60;;;;;;4900020;28;85189;-44
2023/12/30 07:10:56;;;;;;;127.53;56.15;;;16.30;69.60;;;;;;4903277;28;85090;-41
2023/12/30 07:13:22;;;;;;;125.90;55.88;;;16.20;69.60;;;;;;4903464;28;85566;-42
2023/12/30 07:15:48;;;;;;;126.20;55.42;;;16.20;69.60;;;;;;4904953;28;87062;-44
2023/12/30 07:18:13;;;;;;;127.25;55.60;;;16.30;69.60;;;;;;4903473;28;86400;-43
2023/12/30 07:20:39;;;;;;;125.63;55.88;;;16.20;69.60;;;;;;4903788;28;84966;-43
2023/12/30 07:23:06;;;;;;;126.43;56.63;;;16.20;69.50;;;;;;4900308;28;89404;-45
2023/12/30 07:25:32;;;;;;;124.70;55.88;;;16.20;69.60;;;;;;4897520;28;84970;-46
2023/12/30 07:27:57;;;;;;;130.00;56.03;;;16.20;69.60;;;;;;4893936;28;86896;-46
2023/12/30 07:30:23;;;;;;;128.88;55.15;;;16.20;69.70;;;;;;4899360;28;84616;-43
2023/12/30 07:32:49;;;;;;;124.32;55.47;;;16.20;69.70;;;;;;4891552;28;85184;-45
2023/12/30 07:35:15;;;;;;;125.50;56.10;;;16.10;69.80;;;;;;4896633;28;84987;-42
2023/12/30 07:37:40;;;;;;;127.00;56.35;;;16.20;69.80;;;;;;4896165;28;85121;-41
2023/12/30 07:40:06;;;;;;;128.50;56.25;;;16.20;69.90;;;;;;4896536;28;85323;-42
2023/12/30 07:42:32;;;;;;;124.88;55.60;;;16.20;69.90;;;;;;4890970;28;86350;-41
2023/12/30 07:44:58;;;;;;;126.38;55.65;;;16.20;69.90;;;;;;4893395;28;85254;-44
2023/12/30 07:47:25;;;;;;;124.07;56.00;;;16.20;69.90;;;;;;4896367;28;90030;-43
2023/12/30 07:49:51;;;;;;;125.10;55.75;;;16.10;70.10;;;;;;4893978;28;85382;-42
2023/12/30 07:52:17;;;;;;;131.80;56.00;;;16.20;70.50;;;;;;4894697;28;85536;-44
2023/12/30 07:54:42;;;;;;;124.93;55.38;;;16.20;71.20;;;;;;4896912;28;84572;-46
2023/12/30 07:57:08;;;;;;;124.65;55.63;;;16.10;70.60;;;;;;4897320;28;85532;-42
2023/12/30 07:59:33;;;;;;;128.18;56.10;;;16.10;71.00;;;;;;4893459;28;85035;-41
2023/12/30 08:01:59;;;;;;;127.18;56.17;;;16.10;71.30;;;;;;4898301;28;85047;-42
2023/12/30 08:04:25;;;;;;;126.75;56.05;;;16.10;71.60;;;;;;4893298;28;85234;-40
2023/12/30 08:06:51;;;;;;;133.18;57.28;;;16.10;71.50;;;;;;4893631;28;85733;-40
2023/12/30 08:09:17;;;;;;;131.93;56.08;;;16.10;71.80;;;;;;4893501;28;84900;-40
2023/12/30 08:11:43;;;;;;;132.77;56.80;;;16.10;72.20;;;;;;4896254;28;84521;-41
2023/12/30 08:14:09;;;;;;;132.05;57.17;;;16.10;72.50;;;;;;4892016;28;89169;-40
2023/12/30 08:16:38;;;;;;;131.27;56.80;;;16.10;72.50;;;;;;4888974;28;86374;-42
2023/12/30 08:19:03;;;;;;;134.05;57.20;;;16.10;72.80;;;;;;4886917;28;86086;-41
2023/12/30 08:21:32;;;;;;;136.32;57.10;;;16.10;73.10;;;;;;4896314;28;86200;-38
2023/12/30 08:23:59;;;;;;;141.77;58.08;;;16.10;73.70;;;;;;4893400;28;85211;-38
2023/12/30 08:26:26;;;;;;;141.85;57.72;;;16.30;74.90;;;;;;4892770;28;84742;-39
2023/12/30 08:28:52;;;;;;;141.57;57.97;;;16.30;73.70;;;;;;4896595;28;84965;-39
2023/12/30 08:31:18;;;;;;;130.63;57.53;;;16.40;73.00;;;;;;4898997;28;85119;-40
2023/12/30 08:33:45;;;;;;;132.73;57.53;;;16.40;72.80;;;;;;4898507;28;85278;-38
2023/12/30 08:36:10;;;;;;;137.95;57.15;;;16.50;72.50;;;;;;4898673;28;85741;-40
2023/12/30 08:38:36;;;;;;;139.38;57.72;;;16.50;72.10;;;;;;4898804;28;85240;-43
2023/12/30 08:41:02;;;;;;;132.23;56.78;;;16.50;72.00;;;;;;4898863;28;85313;-38
2023/12/30 08:43:29;;;;;;;135.57;57.40;;;16.50;71.70;;;;;;4900109;28;85673;-37
2023/12/30 08:45:55;;;;;;;131.70;57.13;;;16.50;71.40;;;;;;4897600;28;84984;-37
2023/12/30 08:48:21;;;;;;;131.63;57.40;;;16.50;71.30;;;;;;4899111;28;85167;-37
2023/12/30 08:50:48;;;;;;;134.73;56.78;;;16.50;71.20;;;;;;4901080;28;84858;-37
2023/12/30 08:53:14;;;;;;;134.85;57.42;;;16.50;71.10;;;;;;4901860;28;85551;-36
2023/12/30 08:55:39;;;;;;;134.00;57.58;;;16.50;71.00;;;;;;4905720;28;85086;-36
2023/12/30 08:58:05;;;;;;;128.98;56.90;;;16.50;70.90;;;;;;4903311;28;86143;-38
2023/12/30 09:00:30;;;;;;;131.57;56.67;;;16.50;70.70;;;;;;4904456;28;84709;-36
2023/12/30 09:02:57;;;;;;;130.30;57.25;;;16.50;70.60;;;;;;4908458;28;84456;-36
2023/12/30 09:05:23;;;;;;;131.88;56.63;;;16.50;70.50;;;;;;4906006;28;85601;-36
2023/12/30 09:07:49;;;;;;;129.45;57.28;;;16.50;70.40;;;;;;4906167;28;85448;-37
2023/12/30 09:10:19;;;;;;;132.88;57.13;;;16.50;70.30;;;;;;4907142;28;85304;-37
2023/12/30 09:12:45;;;;;;;130.40;56.95;;;16.50;70.90;;;;;;4907180;28;85474;-38
2023/12/30 09:15:11;;;;;;;134.30;57.38;;;16.50;70.10;;;;;;4904654;28;87017;-38
2023/12/30 09:17:36;;;;;;;128.93;56.95;;;16.50;70.20;;;;;;4905303;28;85241;-39
2023/12/30 09:20:03;;;;;;;129.85;56.65;;;16.50;70.20;;;;;;4906117;28;85959;-38
2023/12/30 09:22:29;;;;;;;129.35;56.38;;;16.50;70.30;;;;;;4906412;28;85694;-39
2023/12/30 09:24:55;;;;;;;132.48;56.92;;;16.50;70.20;;;;;;4903223;28;85748;-38
2023/12/30 09:27:21;;;;;;;131.43;56.72;;;16.50;70.00;;;;;;4900375;28;86371;-38
2023/12/30 09:29:47;;;;;;;129.73;56.72;;;16.50;69.90;;;;;;4906209;28;85677;-40
2023/12/30 09:32:13;;;;;;;127.63;56.65;;;16.50;69.90;;;;;;4906582;28;86057;-38
2023/12/30 09:34:38;;;;;;;131.80;56.60;;;16.50;69.70;;;;;;4903236;28;86644;-39
2023/12/30 09:37:04;;;;;;;127.93;56.88;;;16.50;69.70;;;;;;4907315;28;85425;-39
2023/12/30 09:39:29;;;;;;;129.85;56.88;;;16.50;69.60;;;;;;4902970;28;85383;-39
2023/12/30 09:41:56;;;;;;;129.48;56.72;;;16.50;69.60;;;;;;4904623;28;85028;-39
2023/12/30 09:44:23;;;;;;;131.98;56.47;;;16.50;69.60;;;;;;4908416;28;85688;-38
2023/12/30 09:46:50;;;;;;;129.13;56.50;;;16.50;69.60;;;;;;4907108;28;85198;-37
2023/12/30 09:49:17;;;;;;;129.38;56.95;;;16.50;69.60;;;;;;4902803;28;85166;-38
2023/12/30 09:51:42;;;;;;;127.55;56.10;;;16.50;69.60;;;;;;4904339;28;86112;-39
2023/12/30 09:54:10;;;;;;;128.43;56.55;;;16.50;69.40;;;;;;4907665;28;85286;-39
2023/12/30 09:56:36;;;;;;;128.05;56.40;;;16.60;69.40;;;;;;4905578;28;85329;-39
2023/12/30 09:59:03;;;;;;;128.32;56.65;;;16.60;69.40;;;;;;4908512;28;84895;-37
2023/12/30 10:01:30;;;;;;;129.13;56.67;;;16.60;69.30;;;;;;4907234;28;85237;-38
2023/12/30 10:03:56;;;;;;;127.07;56.60;;;16.60;69.30;;;;;;4904426;28;85273;-38
2023/12/30 10:06:23;;;;;;;131.07;57.00;;;16.60;69.30;;;;;;4904736;28;85257;-39
2023/12/30 10:08:49;;;;;;;128.95;56.55;;;16.50;69.20;;;;;;4904352;28;90821;-39
2023/12/30 10:11:15;;;;;;;127.97;56.50;;;16.60;69.20;;;;;;4904532;28;85294;-38
2023/12/30 10:13:41;;;;;;;128.98;56.60;;;16.60;69.20;;;;;;4905004;28;85043;-39
2023/12/30 10:16:08;;;;;;;126.88;56.45;;;16.60;69.20;;;;;;4905196;28;85207;-38
2023/12/30 10:18:35;;;;;;;128.20;56.63;;;16.60;69.20;;;;;;4902972;28;85566;-39
2023/12/30 10:21:03;;;;;;;128.45;56.10;;;16.60;69.20;;;;;;4901729;28;85523;-39
2023/12/30 10:23:31;;;;;;;126.75;56.95;;;16.60;69.00;;;;;;4905347;28;85570;-38
2023/12/30 10:25:57;;;;;;;128.70;56.80;;;16.60;69.10;;;;;;4904338;28;85454;-38
2023/12/30 10:28:23;;;;;;;127.88;56.40;;;16.60;69.10;;;;;;4902553;28;85139;-38
2023/12/30 10:31:01;;;;;;;129.27;56.47;;;16.60;69.00;;;;;;4904781;28;84955;-39
2023/12/30 10:33:26;;;;;;;129.07;56.55;;;16.60;69.10;;;;;;4904786;28;86374;-39
2023/12/30 10:35:55;;;;;;;126.25;56.22;;;16.60;69.20;;;;;;4903902;28;85059;-38
2023/12/30 10:38:22;;;;;;;125.15;55.72;;;16.60;69.00;;;;;;4898287;28;91650;-38
2023/12/30 10:40:47;;;;;;;125.97;56.45;;;16.60;69.00;;;;;;4902169;28;85049;-38
2023/12/30 10:43:13;;;;;;;128.00;56.03;;;16.60;68.80;;;;;;4902698;28;85816;-39
2023/12/30 10:45:40;;;;;;;125.95;56.38;;;16.70;68.80;;;;;;4905837;28;84579;-39
2023/12/30 10:48:06;;;;;;;128.80;56.70;;;16.70;68.70;;;;;;4902825;28;85657;-38
2023/12/30 10:50:36;;;;;;;127.68;56.80;;;16.70;68.70;;;;;;4905431;28;84927;-39
2023/12/30 10:53:08;;;;;;;129.52;56.42;;;16.70;69.50;;;;;;4903635;28;85392;-39
2023/12/30 10:55:35;;;;;;;125.60;56.85;;;16.70;68.70;;;;;;4904037;28;84970;-38
2023/12/30 10:58:13;;;;;;;126.97;56.30;;;16.70;68.80;;;;;;4904702;28;85741;-38
2023/12/30 11:00:42;;;;;;;126.82;55.63;;;16.70;68.80;;;;;;4902517;28;84482;-38
2023/12/30 11:03:09;;;;;;;126.90;55.97;;;16.70;68.90;;;;;;4899649;28;84832;-40
2023/12/30 11:05:43;;;;;;;125.43;55.97;;;16.70;68.80;;;;;;4902889;28;84902;-38
2023/12/30 11:08:09;;;;;;;126.82;56.30;;;16.70;68.80;;;;;;4897140;28;85888;-38
2023/12/30 11:10:35;;;;;;;126.90;56.47;;;16.70;68.80;;;;;;4898743;28;85384;-39
2023/12/30 11:13:01;;;;;;;125.30;56.08;;;16.70;68.80;;;;;;4902746;28;85145;-38
2023/12/30 11:15:28;;;;;;;126.95;56.33;;;16.70;68.80;;;;;;4903958;28;84617;-39
2023/12/30 11:17:56;;;;;;;125.13;56.45;;;16.70;68.90;;;;;;4905081;28;84892;-39
2023/12/30 11:20:24;;;;;;;126.55;56.38;;;16.70;68.70;;;;;;4906770;28;85023;-39
2023/12/30 11:22:53;;;;;;;127.35;56.25;;;16.70;68.70;;;;;;4907163;28;85019;-39
2023/12/30 11:25:19;;;;;;;125.72;56.28;;;16.70;68.60;;;;;;4900875;28;86264;-39
2023/12/30 11:27:52;;;;;;;126.07;56.05;;;16.70;68.70;;;;;;4901270;28;86076;-40
2023/12/30 11:30:24;;;;;;;127.35;56.17;;;16.70;68.70;;;;;;4902553;28;85161;-39
2023/12/30 11:32:52;;;;;;;126.38;55.88;;;16.70;68.60;;;;;;4904003;28;86456;-39
2023/12/30 11:35:18;;;;;;;124.95;56.10;;;16.70;68.60;;;;;;4906587;28;85776;-39
2023/12/30 11:37:46;;;;;;;126.38;56.47;;;16.70;68.50;;;;;;4903499;28;84976;-39
2023/12/30 11:40:18;;;;;;;126.68;56.00;;;16.70;68.60;;;;;;4904248;28;85120;-39
2023/12/30 11:42:45;;;;;;;126.40;56.28;;;16.70;68.50;;;;;;4902232;28;85394;-40
2023/12/30 11:45:10;;;;;;;128.10;56.10;;;16.70;68.50;;;;;;4905121;28;85597;-38
2023/12/30 11:47:37;;;;;;;127.50;56.50;;;16.70;68.50;;;;;;4907216;28;85372;-39
2023/12/30 11:50:04;;;;;;;124.43;55.80;;;16.70;68.50;;;;;;4901254;28;84995;-38
2023/12/30 11:52:30;;;;;;;127.22;56.17;;;16.70;68.50;;;;;;4906212;28;85412;-39
2023/12/30 11:54:55;;;;;;;125.00;55.75;;;16.70;68.60;;;;;;4906247;28;86122;-38
2023/12/30 11:57:21;;;;;;;127.32;56.63;;;16.70;68.50;;;;;;4902341;28;85546;-38
2023/12/30 11:59:47;;;;;;;126.38;56.22;;;16.70;68.50;;;;;;4907037;28;85084;-38
2023/12/30 12:02:13;;;;;;;128.88;56.20;;;16.80;68.50;;;;;;4904375;28;85201;-39
2023/12/30 12:04:39;;;;;;;124.78;55.75;;;16.80;68.60;;;;;;4903771;28;84914;-41
2023/12/30 12:07:05;;;;;;;125.57;56.30;;;16.80;68.60;;;;;;4903749;28;84800;-38
2023/12/30 12:09:31;;;;;;;125.38;56.13;;;16.80;68.60;;;;;;4907012;28;84938;-38
2023/12/30 12:11:57;;;;;;;126.55;56.33;;;16.80;68.60;;;;;;4903880;28;85487;-39
2023/12/30 12:14:51;;;;;;;126.63;56.03;;;16.80;68.50;;;;;;4905856;28;85254;-38